Lafferty, Ohio
Current Conditions -  °F | °C
As of 11:41 AM on Saturday 22 Nov 2014 (Local Time) from KHLG Reporting Station
Light Rain Light Rain  
Wind Chill: 25°   Ceiling: 1800
Heat Index: 34°   Visibility: 10mi
Dew Point: 25°   Wind: 12mph
Humidity: 70%   Direction: 210°SSW
Pressure: 30.26"   Gusts: NA
Location:  40.11°N, 81.02°W
Report Text: KHLG 221641Z 21010KT 10SM -RA SCT012 OVC018 01/M04 A3026 RMK AO2 RAE00B06UPB1557E1559 P0000 T00111039
Loading
Personal Weather Stations






























Interactive Weather Map New forecast layout! Learn more

10-Day Weather Forecast

Advertisements
Track Severe Weather on mobile